BAW4424 EGLL-EBCI
Flight info
| Callsign | BAW4424 |
|---|---|
| Flight time | 0h 39m |
| Altitude | 23000 |
| Route | DET L6 DVR L9 KONAN/N0332F190 L607 KOK |
| Aircraft | A20N/M-SDE2E3FGHIRWXY/LB1 |
Departure
| Time | 2026-05-06 16:52 |
|---|---|
| Airport | London Heathrow Airport (EGLL) |
Arrival
| Time | 2026-05-06 17:32 |
|---|---|
| Airport | Brussels South Charleroi Airport (EBCI) |
| Time | Latitude | Longitude | Altitude | Speed | Heading |
|---|---|---|---|---|---|
| 2026-05-06 16:35 | 51.47231 | -0.48583 | 88 ft | 0 kts | 269° |
| 2026-05-06 16:43 | 51.47231 | -0.48567 | 87 ft | 2 kts | 269° |
| 2026-05-06 16:44 | 51.47231 | -0.48543 | 89 ft | 2 kts | 269° |
| 2026-05-06 16:44 | 51.47232 | -0.48518 | 87 ft | 2 kts | 269° |
| 2026-05-06 16:44 | 51.47232 | -0.48512 | 88 ft | 1 kts | 269° |
| 2026-05-06 16:44 | 51.47232 | -0.48497 | 89 ft | 1 kts | 258° |
| 2026-05-06 16:45 | 51.47235 | -0.48483 | 88 ft | 1 kts | 225° |
| 2026-05-06 16:45 | 51.47242 | -0.48473 | 90 ft | 1 kts | 190° |
| 2026-05-06 16:45 | 51.47248 | -0.48472 | 89 ft | 0 kts | 182° |
| 2026-05-06 16:48 | 51.47234 | -0.48473 | 88 ft | 5 kts | 182° |
| 2026-05-06 16:49 | 51.47180 | -0.48476 | 88 ft | 11 kts | 180° |
| 2026-05-06 16:49 | 51.47086 | -0.48474 | 88 ft | 16 kts | 178° |
| 2026-05-06 16:49 | 51.46963 | -0.48471 | 90 ft | 14 kts | 179° |
| 2026-05-06 16:49 | 51.46867 | -0.48470 | 92 ft | 16 kts | 179° |
| 2026-05-06 16:50 | 51.46784 | -0.48468 | 92 ft | 19 kts | 179° |
| 2026-05-06 16:50 | 51.46626 | -0.48468 | 95 ft | 1 kts | 180° |
| 2026-05-06 16:50 | 51.46605 | -0.48468 | 95 ft | 5 kts | 179° |
| 2026-05-06 16:50 | 51.46573 | -0.48467 | 96 ft | 9 kts | 179° |
| 2026-05-06 16:51 | 51.46478 | -0.48410 | 94 ft | 13 kts | 100° |
| 2026-05-06 16:51 | 51.46478 | -0.48339 | 94 ft | 0 kts | 89° |
| 2026-05-06 16:51 | 51.46478 | -0.48338 | 94 ft | 4 kts | 89° |
| 2026-05-06 16:52 | 51.46482 | -0.47849 | 89 ft | 96 kts | 89° |
| 2026-05-06 16:52 | 51.46481 | -0.46296 | 243 ft | 167 kts | 88° |
| 2026-05-06 16:52 | 51.46473 | -0.44355 | 1254 ft | 180 kts | 87° |
| 2026-05-06 16:52 | 51.46477 | -0.42309 | 2415 ft | 189 kts | 85° |
| 2026-05-06 16:53 | 51.46432 | -0.40175 | 3483 ft | 201 kts | 99° |
| 2026-05-06 16:53 | 51.45798 | -0.38004 | 4260 ft | 229 kts | 123° |
| 2026-05-06 16:53 | 51.44853 | -0.35792 | 5205 ft | 250 kts | 117° |
| 2026-05-06 16:53 | 51.44061 | -0.33138 | 5721 ft | 275 kts | 111° |
| 2026-05-06 16:54 | 51.43365 | -0.30231 | 6470 ft | 283 kts | 108° |
| 2026-05-06 16:54 | 51.42800 | -0.27273 | 7815 ft | 280 kts | 101° |
| 2026-05-06 16:54 | 51.42383 | -0.24185 | 8982 ft | 287 kts | 100° |
| 2026-05-06 16:54 | 51.41963 | -0.21010 | 9844 ft | 294 kts | 101° |
| 2026-05-06 16:55 | 51.41521 | -0.17702 | 10360 ft | 318 kts | 101° |
| 2026-05-06 16:55 | 51.41029 | -0.14068 | 10750 ft | 344 kts | 101° |
| 2026-05-06 16:55 | 51.40510 | -0.10339 | 11113 ft | 349 kts | 102° |
| 2026-05-06 16:55 | 51.39974 | -0.06551 | 11487 ft | 350 kts | 102° |
| 2026-05-06 16:56 | 51.39428 | -0.02715 | 11876 ft | 353 kts | 102° |
| 2026-05-06 16:56 | 51.38879 | 0.01142 | 12180 ft | 354 kts | 102° |
| 2026-05-06 16:56 | 51.38342 | 0.04904 | 12564 ft | 342 kts | 102° |
| 2026-05-06 16:56 | 51.37806 | 0.08668 | 12961 ft | 347 kts | 102° |
| 2026-05-06 16:57 | 51.37262 | 0.12447 | 13355 ft | 347 kts | 102° |
| 2026-05-06 16:57 | 51.36715 | 0.16225 | 13754 ft | 350 kts | 102° |
| 2026-05-06 16:57 | 51.36168 | 0.20001 | 14109 ft | 352 kts | 102° |
| 2026-05-06 16:57 | 51.35616 | 0.23827 | 14474 ft | 353 kts | 102° |
| 2026-05-06 16:58 | 51.35061 | 0.27691 | 14841 ft | 354 kts | 102° |
| 2026-05-06 16:58 | 51.34506 | 0.31552 | 15208 ft | 358 kts | 102° |
| 2026-05-06 16:58 | 51.33950 | 0.35409 | 15578 ft | 360 kts | 103° |
| 2026-05-06 16:58 | 51.33383 | 0.39328 | 15955 ft | 361 kts | 103° |
| 2026-05-06 16:59 | 51.32812 | 0.43259 | 16341 ft | 362 kts | 103° |
| 2026-05-06 16:59 | 51.32236 | 0.47214 | 16729 ft | 365 kts | 103° |
| 2026-05-06 16:59 | 51.31664 | 0.51132 | 17122 ft | 366 kts | 103° |
| 2026-05-06 16:59 | 51.31081 | 0.55119 | 17518 ft | 368 kts | 103° |
| 2026-05-06 17:00 | 51.30493 | 0.59116 | 17917 ft | 371 kts | 104° |
| 2026-05-06 17:00 | 51.29791 | 0.63109 | 18317 ft | 374 kts | 107° |
| 2026-05-06 17:00 | 51.29058 | 0.67105 | 18663 ft | 374 kts | 107° |
| 2026-05-06 17:00 | 51.28327 | 0.71110 | 19020 ft | 374 kts | 107° |
| 2026-05-06 17:01 | 51.27597 | 0.75100 | 19386 ft | 379 kts | 107° |
| 2026-05-06 17:01 | 51.26854 | 0.79154 | 19751 ft | 381 kts | 107° |
| 2026-05-06 17:01 | 51.26112 | 0.83195 | 20119 ft | 383 kts | 107° |
| 2026-05-06 17:01 | 51.25363 | 0.87271 | 20492 ft | 382 kts | 107° |
| 2026-05-06 17:02 | 51.24601 | 0.91396 | 20880 ft | 387 kts | 107° |
| 2026-05-06 17:02 | 51.23842 | 0.95492 | 21252 ft | 389 kts | 108° |
| 2026-05-06 17:02 | 51.23073 | 0.99636 | 21640 ft | 388 kts | 108° |
| 2026-05-06 17:02 | 51.22304 | 1.03774 | 22042 ft | 391 kts | 107° |
| 2026-05-06 17:03 | 51.21517 | 1.07992 | 22450 ft | 395 kts | 107° |
| 2026-05-06 17:03 | 51.20736 | 1.12177 | 22765 ft | 397 kts | 108° |
| 2026-05-06 17:03 | 51.19949 | 1.16390 | 22864 ft | 394 kts | 108° |
| 2026-05-06 17:03 | 51.19157 | 1.20603 | 22964 ft | 398 kts | 108° |
| 2026-05-06 17:04 | 51.18371 | 1.24775 | 22962 ft | 398 kts | 108° |
| 2026-05-06 17:04 | 51.17571 | 1.29016 | 22959 ft | 397 kts | 108° |
| 2026-05-06 17:04 | 51.16783 | 1.33218 | 22955 ft | 395 kts | 107° |
| 2026-05-06 17:04 | 51.16215 | 1.37540 | 22954 ft | 400 kts | 99° |
| 2026-05-06 17:05 | 51.15964 | 1.41992 | 22956 ft | 401 kts | 95° |
| 2026-05-06 17:05 | 51.15766 | 1.46409 | 22955 ft | 396 kts | 96° |
| 2026-05-06 17:05 | 51.15563 | 1.50735 | 22955 ft | 397 kts | 96° |
| 2026-05-06 17:05 | 51.15350 | 1.55145 | 22955 ft | 398 kts | 96° |
| 2026-05-06 17:06 | 51.15137 | 1.59538 | 22956 ft | 396 kts | 96° |
| 2026-05-06 17:06 | 51.14920 | 1.63928 | 22952 ft | 398 kts | 96° |
| 2026-05-06 17:06 | 51.14701 | 1.68320 | 22951 ft | 398 kts | 96° |
| 2026-05-06 17:06 | 51.14484 | 1.72705 | 22946 ft | 396 kts | 96° |
| 2026-05-06 17:07 | 51.14261 | 1.77106 | 22952 ft | 400 kts | 96° |
| 2026-05-06 17:07 | 51.14037 | 1.81522 | 22949 ft | 399 kts | 96° |
| 2026-05-06 17:07 | 51.13815 | 1.85868 | 22949 ft | 397 kts | 96° |
| 2026-05-06 17:07 | 51.13590 | 1.90236 | 22951 ft | 399 kts | 96° |
| 2026-05-06 17:08 | 51.13360 | 1.94667 | 22967 ft | 400 kts | 96° |
| 2026-05-06 17:08 | 51.13131 | 1.99073 | 22960 ft | 399 kts | 96° |
| 2026-05-06 17:08 | 51.12896 | 2.03501 | 22959 ft | 400 kts | 96° |
| 2026-05-06 17:08 | 51.12661 | 2.07923 | 22959 ft | 400 kts | 96° |
| 2026-05-06 17:09 | 51.12427 | 2.12314 | 22958 ft | 399 kts | 97° |
| 2026-05-06 17:09 | 51.12191 | 2.16677 | 22958 ft | 401 kts | 96° |
| 2026-05-06 17:09 | 51.11952 | 2.21104 | 22956 ft | 400 kts | 97° |
| 2026-05-06 17:09 | 51.11712 | 2.25512 | 22955 ft | 399 kts | 97° |
| 2026-05-06 17:10 | 51.11469 | 2.29918 | 22943 ft | 402 kts | 96° |
| 2026-05-06 17:10 | 51.11224 | 2.34341 | 22942 ft | 400 kts | 97° |
| 2026-05-06 17:10 | 51.10978 | 2.38757 | 22938 ft | 400 kts | 97° |
| 2026-05-06 17:10 | 51.10730 | 2.43165 | 22942 ft | 401 kts | 96° |
| 2026-05-06 17:11 | 51.10480 | 2.47592 | 22940 ft | 400 kts | 97° |
| 2026-05-06 17:11 | 51.10232 | 2.51961 | 22939 ft | 401 kts | 97° |
| 2026-05-06 17:11 | 51.09978 | 2.56383 | 22939 ft | 402 kts | 97° |
| 2026-05-06 17:11 | 51.09723 | 2.60807 | 22938 ft | 400 kts | 97° |
| 2026-05-06 17:12 | 51.09445 | 2.65211 | 22937 ft | 400 kts | 100° |
| 2026-05-06 17:12 | 51.08942 | 2.69577 | 22936 ft | 402 kts | 103° |
| 2026-05-06 17:12 | 51.08415 | 2.73941 | 22936 ft | 399 kts | 103° |
| 2026-05-06 17:12 | 51.07896 | 2.78278 | 22936 ft | 400 kts | 102° |
| 2026-05-06 17:13 | 51.07372 | 2.82647 | 22940 ft | 401 kts | 102° |
| 2026-05-06 17:13 | 51.06854 | 2.86950 | 22937 ft | 402 kts | 102° |
| 2026-05-06 17:13 | 51.06327 | 2.91321 | 22937 ft | 401 kts | 103° |
| 2026-05-06 17:13 | 51.05798 | 2.95675 | 22937 ft | 402 kts | 102° |
| 2026-05-06 17:14 | 51.05266 | 3.00036 | 22939 ft | 402 kts | 102° |
| 2026-05-06 17:14 | 51.04734 | 3.04399 | 22933 ft | 401 kts | 103° |
| 2026-05-06 17:14 | 51.04199 | 3.08754 | 22932 ft | 402 kts | 102° |
| 2026-05-06 17:14 | 51.03660 | 3.13123 | 22931 ft | 402 kts | 103° |
| 2026-05-06 17:15 | 51.03124 | 3.17472 | 22930 ft | 401 kts | 103° |
| 2026-05-06 17:15 | 51.02582 | 3.21838 | 22923 ft | 402 kts | 103° |
| 2026-05-06 17:15 | 51.02038 | 3.26199 | 22921 ft | 403 kts | 103° |
| 2026-05-06 17:15 | 51.01496 | 3.30552 | 22915 ft | 402 kts | 103° |
| 2026-05-06 17:16 | 51.00958 | 3.34852 | 22918 ft | 401 kts | 102° |
| 2026-05-06 17:16 | 51.00411 | 3.39202 | 22914 ft | 403 kts | 103° |
| 2026-05-06 17:16 | 50.99862 | 3.43564 | 22906 ft | 401 kts | 103° |
| 2026-05-06 17:16 | 50.99314 | 3.47910 | 22905 ft | 401 kts | 103° |
| 2026-05-06 17:17 | 50.98761 | 3.52261 | 22910 ft | 402 kts | 102° |
| 2026-05-06 17:17 | 50.98208 | 3.56616 | 22905 ft | 402 kts | 103° |
| 2026-05-06 17:17 | 50.97654 | 3.60967 | 22902 ft | 401 kts | 103° |
| 2026-05-06 17:17 | 50.97104 | 3.65264 | 22902 ft | 402 kts | 103° |
| 2026-05-06 17:18 | 50.96543 | 3.69631 | 22897 ft | 403 kts | 103° |
| 2026-05-06 17:18 | 50.95983 | 3.73989 | 22871 ft | 402 kts | 103° |
| 2026-05-06 17:18 | 50.95422 | 3.78329 | 22564 ft | 402 kts | 103° |
| 2026-05-06 17:18 | 50.94858 | 3.82673 | 22040 ft | 400 kts | 103° |
| 2026-05-06 17:19 | 50.94302 | 3.86960 | 21518 ft | 393 kts | 103° |
| 2026-05-06 17:19 | 50.93751 | 3.91192 | 21001 ft | 390 kts | 103° |
| 2026-05-06 17:19 | 50.93152 | 3.95324 | 20448 ft | 389 kts | 109° |
| 2026-05-06 17:19 | 50.92009 | 3.99177 | 19816 ft | 383 kts | 124° |
| 2026-05-06 17:20 | 50.90294 | 4.02354 | 19219 ft | 377 kts | 139° |
| 2026-05-06 17:20 | 50.88282 | 4.04951 | 18620 ft | 372 kts | 142° |
| 2026-05-06 17:20 | 50.86268 | 4.07520 | 17938 ft | 369 kts | 141° |
| 2026-05-06 17:20 | 50.84273 | 4.10069 | 17155 ft | 368 kts | 141° |
| 2026-05-06 17:21 | 50.82291 | 4.12604 | 16498 ft | 364 kts | 141° |
| 2026-05-06 17:21 | 50.80353 | 4.15085 | 15809 ft | 362 kts | 141° |
| 2026-05-06 17:21 | 50.78392 | 4.17592 | 15147 ft | 358 kts | 141° |
| 2026-05-06 17:21 | 50.76463 | 4.20054 | 14258 ft | 354 kts | 140° |
| 2026-05-06 17:22 | 50.74547 | 4.22496 | 13254 ft | 353 kts | 140° |
| 2026-05-06 17:22 | 50.72649 | 4.24919 | 12337 ft | 347 kts | 140° |
| 2026-05-06 17:22 | 50.70902 | 4.27506 | 11389 ft | 342 kts | 126° |
| 2026-05-06 17:22 | 50.69840 | 4.30781 | 10495 ft | 335 kts | 105° |
| 2026-05-06 17:23 | 50.69247 | 4.34252 | 9838 ft | 326 kts | 103° |
| 2026-05-06 17:23 | 50.68662 | 4.37648 | 9191 ft | 316 kts | 103° |
| 2026-05-06 17:23 | 50.68098 | 4.40956 | 8529 ft | 307 kts | 103° |
| 2026-05-06 17:23 | 50.67555 | 4.44160 | 7922 ft | 298 kts | 103° |
| 2026-05-06 17:24 | 50.67021 | 4.47268 | 7416 ft | 287 kts | 103° |
| 2026-05-06 17:24 | 50.66495 | 4.50261 | 6923 ft | 278 kts | 103° |
| 2026-05-06 17:24 | 50.65987 | 4.53162 | 6443 ft | 272 kts | 103° |
| 2026-05-06 17:24 | 50.65486 | 4.56051 | 5943 ft | 274 kts | 103° |
| 2026-05-06 17:25 | 50.64995 | 4.58902 | 5415 ft | 270 kts | 104° |
| 2026-05-06 17:25 | 50.64271 | 4.61590 | 4906 ft | 266 kts | 123° |
| 2026-05-06 17:25 | 50.62991 | 4.63657 | 4403 ft | 262 kts | 139° |
| 2026-05-06 17:25 | 50.61581 | 4.65413 | 3957 ft | 255 kts | 139° |
| 2026-05-06 17:26 | 50.60196 | 4.67152 | 3457 ft | 253 kts | 139° |
| 2026-05-06 17:26 | 50.58841 | 4.68876 | 3151 ft | 242 kts | 139° |
| 2026-05-06 17:26 | 50.57574 | 4.70475 | 3033 ft | 230 kts | 139° |
| 2026-05-06 17:26 | 50.56310 | 4.72063 | 2999 ft | 228 kts | 139° |
| 2026-05-06 17:27 | 50.55091 | 4.73591 | 3001 ft | 223 kts | 140° |
| 2026-05-06 17:27 | 50.53752 | 4.74743 | 3005 ft | 226 kts | 171° |
| 2026-05-06 17:27 | 50.52267 | 4.74361 | 2998 ft | 210 kts | 214° |
| 2026-05-06 17:27 | 50.51485 | 4.72752 | 3005 ft | 170 kts | 260° |
| 2026-05-06 17:28 | 50.51360 | 4.70879 | 3003 ft | 178 kts | 270° |
| 2026-05-06 17:28 | 50.51280 | 4.68949 | 3002 ft | 177 kts | 269° |
| 2026-05-06 17:28 | 50.51184 | 4.67013 | 3000 ft | 177 kts | 268° |
| 2026-05-06 17:28 | 50.51063 | 4.65141 | 3002 ft | 168 kts | 267° |
| 2026-05-06 17:29 | 50.50916 | 4.63305 | 2841 ft | 172 kts | 263° |
| 2026-05-06 17:29 | 50.50624 | 4.61452 | 2612 ft | 175 kts | 254° |
| 2026-05-06 17:29 | 50.50198 | 4.59744 | 2384 ft | 162 kts | 249° |
| 2026-05-06 17:29 | 50.49749 | 4.58186 | 2169 ft | 153 kts | 248° |
| 2026-05-06 17:30 | 50.49309 | 4.56672 | 1971 ft | 149 kts | 249° |
| 2026-05-06 17:30 | 50.48880 | 4.55195 | 1764 ft | 149 kts | 249° |
| 2026-05-06 17:30 | 50.48451 | 4.53725 | 1556 ft | 148 kts | 250° |
| 2026-05-06 17:30 | 50.48025 | 4.52264 | 1366 ft | 145 kts | 249° |
| 2026-05-06 17:31 | 50.47603 | 4.50836 | 1141 ft | 144 kts | 248° |
| 2026-05-06 17:31 | 50.47189 | 4.49441 | 943 ft | 141 kts | 248° |
| 2026-05-06 17:31 | 50.46785 | 4.48040 | 771 ft | 140 kts | 247° |
| 2026-05-06 17:31 | 50.46381 | 4.46646 | 636 ft | 140 kts | 247° |
| 2026-05-06 17:32 | 50.46026 | 4.45415 | 627 ft | 97 kts | 246° |
| 2026-05-06 17:32 | 50.45817 | 4.44705 | 631 ft | 48 kts | 244° |
| 2026-05-06 17:32 | 50.45718 | 4.44360 | 637 ft | 33 kts | 246° |
| 2026-05-06 17:32 | 50.45630 | 4.44048 | 635 ft | 22 kts | 260° |
| 2026-05-06 17:33 | 50.45709 | 4.44021 | 632 ft | 17 kts | 53° |
| 2026-05-06 17:33 | 50.45763 | 4.44135 | 635 ft | 14 kts | 50° |
| 2026-05-06 17:33 | 50.45837 | 4.44280 | 631 ft | 19 kts | 52° |
| 2026-05-06 17:33 | 50.45925 | 4.44466 | 629 ft | 24 kts | 59° |
| 2026-05-06 17:34 | 50.46002 | 4.44717 | 633 ft | 28 kts | 65° |
| 2026-05-06 17:34 | 50.46086 | 4.45007 | 631 ft | 31 kts | 67° |
| 2026-05-06 17:34 | 50.46173 | 4.45308 | 629 ft | 20 kts | 65° |
| 2026-05-06 17:34 | 50.46233 | 4.45514 | 625 ft | 23 kts | 65° |
| 2026-05-06 17:35 | 50.46305 | 4.45765 | 626 ft | 27 kts | 66° |
| 2026-05-06 17:35 | 50.46390 | 4.46059 | 622 ft | 31 kts | 65° |
| 2026-05-06 17:35 | 50.46485 | 4.46384 | 623 ft | 32 kts | 65° |
| 2026-05-06 17:36 | 50.46601 | 4.46774 | 623 ft | 17 kts | 55° |
| 2026-05-06 17:36 | 50.46678 | 4.46773 | 620 ft | 10 kts | 335° |
| 2026-05-06 17:36 | 50.46743 | 4.46783 | 618 ft | 12 kts | 69° |
| 2026-05-06 17:36 | 50.46783 | 4.46937 | 618 ft | 18 kts | 66° |
| 2026-05-06 17:37 | 50.46821 | 4.47071 | 613 ft | 22 kts | 66° |
| 2026-05-06 17:37 | 50.46877 | 4.47273 | 616 ft | 8 kts | 67° |
| 2026-05-06 17:37 | 50.46903 | 4.47316 | 613 ft | 4 kts | 0° |
| 2026-05-06 17:37 | 50.46918 | 4.47321 | 613 ft | 0 kts | 18° |